Terminal Aerodrome Forecast
Issued by NWS Shreveport, LA

Home | Current Version | Previous Version | Text Only | Print | Product List | Glossary On
Versions: 1 2 3 4 5 6 7 8 9 10 11 12 13
460
FTUS44 KSHV 131137
TAFELD
TAF
KELD 131137Z 1312/1412 00000KT P6SM SKC
     FM131500 20007KT P6SM SKC
     FM131700 21012G18KT P6SM SKC
     FM132000 22013G20KT P6SM SKC
     FM132300 22009KT P6SM SKC
     FM140000 21005KT P6SM SKC
     FM140800 29004KT P6SM FEW250=

USA.gov is the U.S. government's official web portal to all federal, state and local government web resources and services.